Time;durP1;ratioP1;P1;durP2;ratioP2;P2;SDS_P1;SDS_P2;PMS_P1;PMS_P2;Temp;Humidity;BMP_temperature;BMP_pressure;BME280_temperature;BME280_humidity;BME280_pressure;Samples;Min_cycle;Max_cycle;Signal;HPM_P1;HPM_P2
2021/06/29 00:01:42;;;;;;;6.75;2.75;;;;;;;12.08;75.50;100896.06;5052356;28;20647;-68
2021/06/29 00:04:09;;;;;;;6.63;2.80;;;;;;;11.77;77.58;100889.19;5052926;28;20053;-68
2021/06/29 00:06:36;;;;;;;4.55;2.90;;;;;;;11.76;77.18;100884.88;5052550;28;20045;-69
2021/06/29 00:09:03;;;;;;;5.72;2.95;;;;;;;11.83;77.39;100890.59;5052435;28;20053;-69
2021/06/29 00:11:31;;;;;;;6.38;2.80;;;;;;;11.67;77.55;100886.25;5052364;28;20045;-69
2021/06/29 00:13:58;;;;;;;8.80;3.30;;;;;;;11.73;77.95;100888.50;5052630;28;20049;-69
2021/06/29 00:16:25;;;;;;;5.85;3.10;;;;;;;11.81;77.41;100877.63;5051904;28;20506;-69
2021/06/29 00:18:52;;;;;;;5.05;2.88;;;;;;;11.72;78.22;100878.19;5052655;28;20056;-69
2021/06/29 00:21:20;;;;;;;4.85;2.58;;;;;;;11.89;76.13;100866.78;5052266;28;20052;-68
2021/06/29 00:23:47;;;;;;;6.18;2.97;;;;;;;11.76;77.90;100869.22;5052043;28;20499;-69
2021/06/29 00:26:14;;;;;;;5.50;2.92;;;;;;;11.73;77.62;100870.25;5052188;28;20140;-69
2021/06/29 00:28:42;;;;;;;8.60;2.95;;;;;;;11.98;76.59;100864.47;5051821;28;20059;-69
2021/06/29 00:31:09;;;;;;;5.28;2.75;;;;;;;11.93;77.04;100866.53;5051762;28;20070;-69
2021/06/29 00:33:37;;;;;;;5.70;3.10;;;;;;;11.98;77.78;100868.84;5052069;28;20048;-69
2021/06/29 00:36:04;;;;;;;5.38;2.47;;;;;;;12.08;76.89;100861.34;5052285;28;20049;-69
2021/06/29 00:38:31;;;;;;;4.65;2.85;;;;;;;12.12;77.29;100852.38;5051634;28;20051;-68
2021/06/29 00:40:59;;;;;;;5.45;2.67;;;;;;;12.35;75.74;100851.81;5051777;28;20487;-69
2021/06/29 00:43:25;;;;;;;;;;;;;;;12.33;76.11;100853.72;5052410;28;20048;-69
2021/06/29 00:45:53;;;;;;;3.55;2.47;;;;;;;12.72;74.27;100848.75;5051977;28;20283;-69
2021/06/29 00:48:20;;;;;;;5.65;2.75;;;;;;;12.73;74.28;100839.97;5051712;28;20053;-68
2021/06/29 00:50:47;;;;;;;3.22;2.72;;;;;;;12.68;74.83;100844.66;5052246;28;20056;-69
2021/06/29 00:53:15;;;;;;;;;;;;;;;12.97;73.26;100835.81;5052475;28;20056;-69
2021/06/29 00:55:42;;;;;;;3.78;2.60;;;;;;;13.09;72.71;100834.19;5052219;28;19927;-69
2021/06/29 00:58:10;;;;;;;6.45;2.70;;;;;;;13.08;72.88;100838.56;5052092;28;20045;-68
2021/06/29 01:00:36;;;;;;;6.32;3.08;;;;;;;13.06;72.85;100842.22;5051941;28;20048;-68
2021/06/29 01:03:05;;;;;;;7.07;2.80;;;;;;;13.10;72.46;100840.25;5052048;28;20139;-68
2021/06/29 01:05:32;;;;;;;4.10;2.83;;;;;;;13.04;73.27;100846.69;5051507;28;20045;-69
2021/06/29 01:07:59;;;;;;;5.35;2.85;;;;;;;12.94;74.36;100841.22;5051814;28;20045;-69
2021/06/29 01:10:26;;;;;;;;;;;;;;;12.89;74.92;100845.06;5051973;28;20056;-69
2021/06/29 01:12:53;;;;;;;;;;;;;;;12.93;72.86;100839.56;5052486;28;19928;-69
2021/06/29 01:15:24;;;;;;;3.85;2.67;;;;;;;12.79;73.87;100836.97;5051409;28;19928;-69
2021/06/29 01:17:52;;;;;;;5.15;2.90;;;;;;;12.92;72.26;100834.41;5051490;28;20048;-69
2021/06/29 01:20:25;;;;;;;4.13;2.72;;;;;;;12.73;75.07;100830.34;5051224;28;20049;-69
2021/06/29 01:22:55;;;;;;;5.72;3.10;;;;;;;12.61;74.50;100841.56;5051807;28;20053;-69
2021/06/29 01:25:24;;;;;;;4.97;2.90;;;;;;;12.74;72.69;100829.44;5051592;28;20049;-69
2021/06/29 01:27:59;;;;;;;6.68;3.03;;;;;;;12.89;73.45;100829.41;5051902;28;20075;-69
2021/06/29 01:33:10;;;;;;;6.18;3.13;;;;;;;13.20;71.89;100828.25;5051457;28;20525;-69
2021/06/29 01:35:40;;;;;;;4.78;2.72;;;;;;;13.19;73.07;100830.03;5051501;28;20075;-69
2021/06/29 01:38:10;;;;;;;4.93;2.92;;;;;;;13.35;71.42;100834.31;5051345;28;20049;-69
2021/06/29 01:40:37;;;;;;;5.25;3.00;;;;;;;13.26;72.89;100825.28;5051331;28;20143;-69
2021/06/29 01:43:04;;;;;;;6.00;3.00;;;;;;;13.23;72.91;100822.84;5052775;28;20045;-69
2021/06/29 01:45:30;;;;;;;;;;;;;;;13.17;72.82;100825.84;5055773;28;20060;-69
2021/06/29 01:48:01;;;;;;;3.03;2.72;;;;;;;13.19;72.78;100830.03;5054937;28;19921;-69
2021/06/29 01:50:27;;;;;;;5.05;3.00;;;;;;;13.33;72.71;100823.94;5054805;28;20143;-69
2021/06/29 01:52:58;;;;;;;5.43;3.40;;;;;;;13.19;74.40;100826.59;5055387;28;20049;-69
2021/06/29 01:55:25;;;;;;;4.70;3.15;;;;;;;13.16;73.45;100821.56;5054574;28;20052;-69
2021/06/29 01:57:52;;;;;;;4.10;3.10;;;;;;;13.22;73.34;100815.94;5054854;28;20048;-69
2021/06/29 02:00:21;;;;;;;4.72;3.15;;;;;;;13.24;72.81;100817.53;5054936;28;20049;-69
2021/06/29 02:02:48;;;;;;;7.85;4.22;;;;;;;13.22;73.19;100810.72;5054789;28;20488;-69
2021/06/29 02:05:15;;;;;;;;;;;;;;;12.96;75.50;100815.84;5055238;28;20049;-69
2021/06/29 02:07:42;;;;;;;7.43;4.28;;;;;;;12.92;76.46;100819.63;5055024;28;19921;-68
2021/06/29 02:10:12;;;;;;;4.82;3.33;;;;;;;12.80;77.22;100816.00;5054954;28;20051;-69
2021/06/29 02:12:40;;;;;;;5.78;3.30;;;;;;;12.84;75.99;100824.47;5053735;28;20057;-69
2021/06/29 02:15:07;;;;;;;4.80;3.10;;;;;;;12.96;75.68;100831.53;5054561;28;20055;-68
2021/06/29 02:17:34;;;;;;;6.07;3.40;;;;;;;12.98;76.13;100813.16;5054230;28;20045;-69
2021/06/29 02:20:01;;;;;;;8.07;3.90;;;;;;;12.88;77.00;100804.22;5054404;28;20049;-68
2021/06/29 02:22:28;;;;;;;5.70;3.53;;;;;;;13.13;75.07;100804.31;5054734;28;20053;-69
2021/06/29 02:24:55;;;;;;;4.60;3.58;;;;;;;13.26;74.98;100815.69;5054844;28;20064;-69
2021/06/29 02:27:23;;;;;;;5.82;3.28;;;;;;;13.22;75.96;100803.72;5054391;28;20052;-68
2021/06/29 02:29:50;;;;;;;5.97;3.85;;;;;;;13.38;75.13;100800.13;5054555;28;20053;-68
2021/06/29 02:32:17;;;;;;;;;;;;;;;13.52;73.77;100796.63;5054767;28;20045;-69
2021/06/29 02:34:44;;;;;;;5.60;3.45;;;;;;;13.53;73.63;100800.91;5054596;28;19921;-69
2021/06/29 02:37:11;;;;;;;4.47;3.33;;;;;;;13.38;76.23;100800.13;5054483;28;20056;-69
2021/06/29 02:39:38;;;;;;;4.88;3.55;;;;;;;13.58;73.77;100790.97;5053998;28;20065;-69
2021/06/29 02:42:06;;;;;;;5.80;3.60;;;;;;;13.52;73.86;100789.59;5054310;28;20056;-68
2021/06/29 02:44:35;;;;;;;5.75;3.38;;;;;;;13.64;74.12;100788.78;5053924;28;20411;-69
2021/06/29 02:47:02;;;;;;;3.90;3.15;;;;;;;13.71;73.94;100795.25;5054299;28;20049;-69
2021/06/29 02:49:29;;;;;;;4.70;3.58;;;;;;;13.85;72.38;100799.56;5053605;28;20057;-69
2021/06/29 02:51:56;;;;;;;4.63;3.45;;;;;;;13.98;72.52;100798.75;5054449;28;20049;-69
2021/06/29 02:54:23;;;;;;;5.45;3.88;;;;;;;14.00;72.17;100799.44;5053521;28;20060;-69
2021/06/29 02:56:49;;;;;;;7.53;3.60;;;;;;;14.00;73.31;100796.84;5053722;28;20049;-69
2021/06/29 02:59:17;;;;;;;7.82;3.63;;;;;;;13.94;74.32;100788.47;5053593;28;20048;-68
2021/06/29 03:01:46;;;;;;;6.53;4.22;;;;;;;14.11;71.52;100794.34;5053821;28;20102;-69
2021/06/29 03:04:13;;;;;;;6.18;3.85;;;;;;;14.03;72.71;100794.88;5053739;28;20484;-69
2021/06/29 03:06:40;;;;;;;5.88;3.65;;;;;;;14.25;71.94;100794.19;5053478;28;20056;-69
2021/06/29 03:09:09;;;;;;;6.95;3.72;;;;;;;14.23;71.51;100793.50;5053866;28;20056;-69
2021/06/29 03:11:36;;;;;;;4.72;3.70;;;;;;;14.19;73.88;100788.56;5053606;28;20056;-68
2021/06/29 03:14:04;;;;;;;6.97;3.65;;;;;;;14.34;71.95;100792.72;5053526;28;20519;-68
2021/06/29 03:16:31;;;;;;;7.38;4.05;;;;;;;14.33;71.38;100797.13;5053169;28;20045;-68
2021/06/29 03:18:59;;;;;;;6.43;4.05;;;;;;;14.35;71.59;100791.78;5053261;28;20045;-68
2021/06/29 03:21:26;;;;;;;5.40;3.60;;;;;;;14.40;71.71;100794.91;5053315;28;20049;-68
2021/06/29 03:23:53;;;;;;;7.78;4.05;;;;;;;14.30;71.54;100797.31;5053333;28;20052;-68
2021/06/29 03:26:20;;;;;;;;;;;;;;;14.36;71.45;100793.47;5053849;28;20057;-69
2021/06/29 03:28:47;;;;;;;8.07;4.38;;;;;;;14.26;71.70;100793.28;5053427;28;19928;-70
2021/06/29 03:31:14;;;;;;;8.50;3.88;;;;;;;14.42;72.42;100787.78;5053096;28;20064;-70
2021/06/29 03:33:41;;;;;;;6.75;3.88;;;;;;;14.51;73.31;100781.06;5053166;28;20049;-70
2021/06/29 03:36:09;;;;;;;;;;;;;;;14.62;71.05;100785.56;5053643;28;20045;-70
2021/06/29 03:38:36;;;;;;;5.32;3.10;;;;;;;14.62;70.91;100782.94;5052636;28;19940;-70
2021/06/29 03:41:03;;;;;;;5.30;3.80;;;;;;;14.49;71.20;100782.94;5053249;28;20053;-70
2021/06/29 03:43:34;;;;;;;8.35;4.57;;;;;;;14.41;71.33;100796.59;5052593;28;20518;-69
2021/06/29 03:46:01;;;;;;;7.47;4.03;;;;;;;14.52;71.41;100791.44;5052816;28;20482;-70
2021/06/29 03:48:27;;;;;;;;;;;;;;;14.63;70.32;100792.47;5053185;28;20052;-70
2021/06/29 03:50:54;;;;;;;4.95;3.25;;;;;;;14.53;69.56;100795.75;5053086;28;19928;-69
2021/06/29 03:53:22;;;;;;;5.25;3.40;;;;;;;14.54;69.83;100796.56;5052833;28;20056;-69
2021/06/29 03:55:49;;;;;;;5.97;3.78;;;;;;;14.51;70.07;100794.97;5052939;28;20053;-69
2021/06/29 03:58:16;;;;;;;7.30;3.63;;;;;;;14.46;70.19;100797.09;5052613;28;20049;-70
2021/06/29 04:00:43;;;;;;;5.97;3.40;;;;;;;14.48;69.11;100795.19;5053156;28;20049;-70
2021/06/29 04:03:10;;;;;;;5.30;3.10;;;;;;;14.49;68.91;100801.25;5053072;28;20053;-69
2021/06/29 04:05:37;;;;;;;5.70;3.80;;;;;;;14.34;69.45;100809.28;5051681;28;20053;-70
2021/06/29 04:08:04;;;;;;;6.97;3.30;;;;;;;14.29;70.84;100800.91;5052941;28;20071;-69
2021/06/29 04:10:33;;;;;;;7.22;3.65;;;;;;;14.32;70.92;100799.84;5052704;28;20049;-69
2021/06/29 04:13:00;;;;;;;11.77;3.78;;;;;;;14.34;70.68;100805.81;5052605;28;20499;-69
2021/06/29 04:15:27;;;;;;;6.45;3.50;;;;;;;14.35;71.11;100804.88;5052628;28;20048;-69
2021/06/29 04:17:53;;;;;;;5.20;3.50;;;;;;;14.36;70.90;100803.94;5052571;28;20075;-69
2021/06/29 04:20:20;;;;;;;9.15;3.90;;;;;;;14.37;73.51;100806.44;5051922;28;20431;-69
2021/06/29 04:22:47;;;;;;;8.77;3.40;;;;;;;14.55;71.33;100817.41;5052526;28;20080;-68
2021/06/29 04:25:14;;;;;;;7.03;3.88;;;;;;;14.66;69.82;100816.66;5052463;28;20056;-69
2021/06/29 04:27:42;;;;;;;;;;;;;;;14.56;70.54;100810.41;5053188;28;20049;-69
2021/06/29 04:30:11;;;;;;;7.72;4.20;;;;;;;14.74;70.62;100823.97;5052390;28;19921;-68
2021/06/29 04:32:38;;;;;;;6.72;4.18;;;;;;;14.78;70.33;100826.25;5051696;28;20049;-69
2021/06/29 04:35:05;;;;;;;;;;;;;;;14.87;70.04;100819.50;5052958;28;20052;-68
2021/06/29 04:37:31;;;;;;;8.15;4.70;;;;;;;15.05;69.78;100808.66;5052007;28;19924;-69
2021/06/29 04:39:58;;;;;;;10.15;5.32;;;;;;;15.22;71.06;100813.50;5052102;28;20049;-69
2021/06/29 04:42:25;;;;;;;7.40;5.13;;;;;;;15.22;69.92;100808.25;5051979;28;20053;-70
2021/06/29 04:44:53;;;;;;;7.10;5.10;;;;;;;15.29;70.32;100812.13;5051828;28;20068;-70
2021/06/29 04:47:20;;;;;;;12.63;4.97;;;;;;;15.31;69.12;100806.75;5051503;28;20484;-68
2021/06/29 04:49:47;;;;;;;12.20;5.10;;;;;;;15.25;71.00;100808.88;5051829;28;20064;-67
2021/06/29 04:52:14;;;;;;;8.18;5.30;;;;;;;15.34;70.25;100807.38;5052108;28;20056;-67
2021/06/29 04:54:41;;;;;;;7.90;4.70;;;;;;;15.61;69.50;100807.06;5051976;28;20056;-68
2021/06/29 04:57:09;;;;;;;12.02;5.65;;;;;;;15.80;69.29;100808.34;5052003;28;20072;-68
2021/06/29 04:59:36;;;;;;;14.15;5.65;;;;;;;15.66;69.99;100810.19;5051411;28;20056;-68
2021/06/29 05:02:05;;;;;;;7.90;4.38;;;;;;;15.97;68.90;100807.88;5051676;28;20415;-69
2021/06/29 05:04:31;;;;;;;8.23;4.88;;;;;;;15.98;68.50;100803.47;5051404;28;20049;-69
2021/06/29 05:06:58;;;;;;;6.90;4.60;;;;;;;16.13;68.35;100806.69;5052002;28;20056;-68
2021/06/29 05:09:25;;;;;;;7.28;4.90;;;;;;;16.23;68.73;100807.66;5051769;28;20041;-68
2021/06/29 05:11:52;;;;;;;7.18;4.85;;;;;;;16.19;67.71;100803.63;5051654;28;20053;-69
2021/06/29 05:14:19;;;;;;;11.35;5.03;;;;;;;16.30;67.11;100808.84;5051636;28;20049;-67
2021/06/29 05:16:46;;;;;;;7.30;4.53;;;;;;;16.35;66.81;100805.88;5052429;28;20049;-67
2021/06/29 05:19:14;;;;;;;;;;;;;;;16.33;67.11;100814.69;5056088;28;20487;-67
2021/06/29 05:21:40;;;;;;;9.05;4.40;;;;;;;16.50;65.93;100812.53;5055267;28;19921;-67
2021/06/29 05:24:08;;;;;;;11.35;4.80;;;;;;;16.51;65.86;100808.97;5055999;28;20057;-66
2021/06/29 05:26:35;;;;;;;8.73;4.43;;;;;;;16.62;67.26;100802.84;5055429;28;20049;-67
2021/06/29 05:29:02;;;;;;;9.60;4.82;;;;;;;16.79;66.63;100804.16;5055854;28;20064;-67
2021/06/29 05:31:29;;;;;;;7.88;4.15;;;;;;;16.73;65.51;100801.03;5055446;28;20049;-67
2021/06/29 05:33:56;;;;;;;9.30;4.40;;;;;;;16.63;65.43;100801.91;5055668;28;20060;-66
2021/06/29 05:36:25;;;;;;;6.88;4.10;;;;;;;16.64;66.01;100793.88;5055301;28;20048;-67
2021/06/29 05:38:52;;;;;;;9.85;4.60;;;;;;;16.87;65.94;100797.31;5055459;28;20044;-70
2021/06/29 05:41:18;;;;;;;10.30;4.88;;;;;;;16.84;65.43;100802.84;5054900;28;20392;-69
2021/06/29 05:43:45;;;;;;;7.65;4.47;;;;;;;16.97;65.52;100806.13;5055545;28;20053;-69
2021/06/29 05:46:13;;;;;;;9.95;4.45;;;;;;;17.00;64.99;100801.59;5053817;28;20488;-69
2021/06/29 05:48:40;;;;;;;9.88;4.78;;;;;;;17.04;64.36;100800.41;5053131;28;20103;-69
2021/06/29 05:51:07;;;;;;;10.05;5.05;;;;;;;17.11;66.15;100804.16;5054980;28;20048;-69
2021/06/29 05:53:36;;;;;;;8.18;5.18;;;;;;;16.89;65.26;100800.66;5054735;28;20060;-69
2021/06/29 05:56:02;;;;;;;9.18;5.50;;;;;;;17.24;64.71;100793.47;5055349;28;20048;-69
2021/06/29 05:58:29;;;;;;;;;;;;;;;17.42;66.13;100795.44;5055375;28;20052;-69
2021/06/29 06:00:56;;;;;;;10.30;5.78;;;;;;;17.38;64.85;100795.81;5054773;28;19921;-69
2021/06/29 06:03:23;;;;;;;;;;;;;;;17.45;64.21;100796.16;5055610;28;20049;-69
2021/06/29 06:05:49;;;;;;;13.48;6.53;;;;;;;17.53;65.51;100789.28;5055076;28;20003;-69
2021/06/29 06:08:16;;;;;;;7.25;5.18;;;;;;;17.30;65.46;100790.38;5054541;28;20048;-69
2021/06/29 06:10:44;;;;;;;7.13;4.50;;;;;;;17.67;65.00;100788.09;5054580;28;20499;-69
2021/06/29 06:13:11;;;;;;;7.03;4.32;;;;;;;17.76;63.85;100786.50;5054565;28;20080;-69
2021/06/29 06:15:39;;;;;;;6.95;4.35;;;;;;;17.71;64.80;100793.97;5054609;28;20063;-69
2021/06/29 06:18:07;;;;;;;4.50;3.72;;;;;;;17.51;64.77;100795.63;5054518;28;20439;-69
2021/06/29 06:20:34;;;;;;;6.80;3.95;;;;;;;17.60;64.08;100794.88;5054601;28;20048;-69
2021/06/29 06:23:01;;;;;;;5.68;4.25;;;;;;;17.66;67.03;100793.53;5054769;28;20068;-69
2021/06/29 06:25:29;;;;;;;6.63;4.03;;;;;;;17.71;65.39;100792.16;5054347;28;20056;-69
2021/06/29 06:27:57;;;;;;;7.18;4.30;;;;;;;17.70;65.77;100795.78;5054256;28;20059;-69
2021/06/29 06:30:25;;;;;;;6.43;3.95;;;;;;;17.42;66.11;100794.63;5053762;28;20057;-69
2021/06/29 06:32:52;;;;;;;7.05;4.50;;;;;;;17.44;66.12;100791.84;5054609;28;20528;-69
2021/06/29 06:35:19;;;;;;;9.15;4.60;;;;;;;17.62;66.87;100793.78;5053984;28;20063;-69
2021/06/29 06:37:46;;;;;;;6.03;4.22;;;;;;;17.90;67.30;100793.25;5054077;28;20526;-69
2021/06/29 06:40:14;;;;;;;5.60;3.95;;;;;;;17.89;64.87;100802.13;5054375;28;20045;-69
2021/06/29 06:42:41;;;;;;;10.23;4.38;;;;;;;17.94;65.73;100789.41;5053892;28;20467;-69
2021/06/29 06:45:11;;;;;;;6.90;3.67;;;;;;;18.17;64.07;100790.06;5054006;28;20049;-70
2021/06/29 06:47:38;;;;;;;5.53;4.10;;;;;;;18.24;63.63;100793.84;5053767;28;20045;-69
2021/06/29 06:50:07;;;;;;;5.85;4.15;;;;;;;18.39;64.54;100797.75;5054006;28;20057;-70
2021/06/29 06:52:35;;;;;;;8.02;4.13;;;;;;;18.79;63.86;100789.00;5053581;28;20045;-70
2021/06/29 06:55:02;;;;;;;6.47;3.40;;;;;;;19.22;61.53;100792.25;5054184;28;20049;-70
2021/06/29 06:57:28;;;;;;;;;;;;;;;19.69;61.67;100795.78;5054449;28;20399;-68
2021/06/29 06:59:55;;;;;;;5.82;3.53;;;;;;;19.91;57.41;100796.41;5053645;28;19921;-70
2021/06/29 07:02:23;;;;;;;;;;;;;;;20.19;60.27;100806.06;5054035;28;20057;-70
2021/06/29 07:04:50;;;;;;;6.65;3.13;;;;;;;20.21;57.29;100801.44;5053997;28;19928;-68
2021/06/29 07:07:16;;;;;;;;;;;;;;;19.97;55.75;100807.25;5054306;28;20051;-70
2021/06/29 07:09:43;;;;;;;3.53;3.00;;;;;;;20.40;58.84;100810.28;5053607;28;20375;-70
2021/06/29 07:12:10;;;;;;;;;;;;;;;20.05;57.61;100806.53;5054266;28;20403;-68
2021/06/29 07:14:37;;;;;;;6.43;3.20;;;;;;;20.32;56.03;100804.88;5053355;28;20367;-68
2021/06/29 07:17:05;;;;;;;4.53;3.40;;;;;;;20.52;56.06;100805.63;5053830;28;20053;-69
2021/06/29 07:19:33;;;;;;;5.30;3.35;;;;;;;21.21;54.10;100806.84;5053338;28;20048;-68
2021/06/29 07:22:00;;;;;;;5.95;3.30;;;;;;;21.58;51.98;100811.97;5053348;28;20048;-68
2021/06/29 07:24:26;;;;;;;;;;;;;;;21.99;53.62;100803.44;5053813;28;20049;-69
2021/06/29 07:26:53;;;;;;;5.90;3.10;;;;;;;21.80;51.90;100807.16;5053620;28;19920;-69
2021/06/29 07:29:20;;;;;;;5.22;3.10;;;;;;;21.83;52.52;100809.47;5052972;28;20052;-69
2021/06/29 07:31:47;;;;;;;;;;;;;;;22.01;51.84;100804.94;5054010;28;20052;-69
2021/06/29 07:34:14;;;;;;;5.43;3.40;;;;;;;21.83;53.41;100812.13;5053105;28;19932;-69
2021/06/29 07:36:42;;;;;;;5.72;3.13;;;;;;;22.16;52.46;100815.78;5052784;28;20068;-69
2021/06/29 07:39:09;;;;;;;10.48;3.15;;;;;;;22.18;55.88;100814.63;5052831;28;20052;-69
2021/06/29 07:41:36;;;;;;;7.57;3.53;;;;;;;23.24;52.52;100814.13;5052602;28;20065;-69
2021/06/29 07:44:03;;;;;;;6.15;2.78;;;;;;;24.53;46.11;100820.34;5053272;28;20060;-69
2021/06/29 07:46:30;;;;;;;3.65;2.88;;;;;;;23.11;50.72;100807.66;5052565;28;20049;-69
2021/06/29 07:48:57;;;;;;;4.82;2.88;;;;;;;23.54;49.93;100808.31;5052741;28;20064;-70
2021/06/29 07:51:24;;;;;;;6.60;3.28;;;;;;;23.60;49.54;100818.25;5052730;28;20071;-70
2021/06/29 07:53:52;;;;;;;4.63;2.85;;;;;;;24.26;48.18;100825.09;5053053;28;20048;-69
2021/06/29 07:56:19;;;;;;;4.05;3.13;;;;;;;24.64;46.83;100820.00;5052746;28;20052;-69
2021/06/29 07:58:47;;;;;;;4.18;3.00;;;;;;;25.70;45.02;100818.34;5052537;28;20045;-70
2021/06/29 08:01:15;;;;;;;4.03;2.67;;;;;;;24.75;46.42;100826.72;5052812;28;20048;-69
2021/06/29 08:03:42;;;;;;;4.65;2.72;;;;;;;24.63;46.82;100818.31;5052636;28;20052;-70
2021/06/29 08:06:10;;;;;;;2.75;2.25;;;;;;;25.75;44.77;100813.31;5052818;28;20056;-70
2021/06/29 08:08:37;;;;;;;4.75;2.58;;;;;;;26.25;45.96;100814.44;5052587;28;20423;-70
2021/06/29 08:11:06;;;;;;;3.63;2.35;;;;;;;26.79;44.76;100821.25;5052337;28;20056;-70
2021/06/29 08:13:33;;;;;;;2.78;2.15;;;;;;;25.36;45.17;100825.00;5052102;28;20411;-70
2021/06/29 08:16:00;;;;;;;4.93;2.70;;;;;;;25.48;47.07;100824.56;5052673;28;20057;-70
2021/06/29 08:18:28;;;;;;;8.57;2.92;;;;;;;25.82;47.17;100822.22;5052425;28;20049;-70
2021/06/29 08:20:55;;;;;;;5.50;2.10;;;;;;;26.76;43.82;100818.97;5052122;28;20098;-70
2021/06/29 08:23:22;;;;;;;4.43;2.28;;;;;;;25.06;46.58;100829.34;5051842;28;20049;-70
2021/06/29 08:25:49;;;;;;;4.22;2.08;;;;;;;27.56;42.84;100827.72;5052111;28;20066;-70
2021/06/29 08:28:17;;;;;;;3.47;2.00;;;;;;;26.30;45.25;100827.22;5052158;28;20056;-70
2021/06/29 08:30:44;;;;;;;5.95;2.45;;;;;;;25.93;44.26;100836.16;5052068;28;20059;-70
2021/06/29 08:33:12;;;;;;;7.40;2.50;;;;;;;27.53;44.20;100836.94;5052093;28;20052;-70
2021/06/29 08:35:39;;;;;;;5.90;2.70;;;;;;;28.90;40.54;100839.94;5051837;28;20499;-70
2021/06/29 08:38:07;;;;;;;3.53;2.10;;;;;;;27.99;41.78;100833.78;5052300;28;20056;-70
2021/06/29 08:40:36;;;;;;;5.55;2.22;;;;;;;29.13;40.14;100834.25;5051894;28;20091;-70
2021/06/29 08:43:04;;;;;;;5.38;2.10;;;;;;;28.72;40.43;100840.50;5052228;28;20113;-69
2021/06/29 08:45:32;;;;;;;3.55;1.90;;;;;;;28.32;39.38;100833.16;5051910;28;20053;-69
2021/06/29 08:48:00;;;;;;;6.68;2.55;;;;;;;28.36;39.74;100846.94;5051756;28;20057;-69
2021/06/29 08:50:30;;;;;;;4.03;1.80;;;;;;;29.11;38.23;100847.00;5051676;28;20052;-69
2021/06/29 08:52:57;;;;;;;5.85;2.05;;;;;;;26.44;42.10;100845.03;5051781;28;20132;-69
2021/06/29 08:55:27;;;;;;;7.45;1.95;;;;;;;26.46;42.41;100851.03;5051422;28;20057;-69
2021/06/29 08:57:54;;;;;;;7.07;2.28;;;;;;;27.02;37.91;100846.94;5051816;28;20084;-69
2021/06/29 09:00:22;;;;;;;5.82;1.60;;;;;;;26.26;38.27;100848.09;5051732;28;20052;-69
2021/06/29 09:02:51;;;;;;;4.47;1.80;;;;;;;27.03;34.12;100853.97;5051721;28;20052;-69
2021/06/29 09:05:23;;;;;;;3.83;1.80;;;;;;;27.97;32.42;100857.22;5051278;28;20522;-69
2021/06/29 09:08:04;;;;;;;8.15;1.92;;;;;;;28.31;31.82;100855.59;5052218;28;20060;-69
2021/06/29 09:10:32;;;;;;;4.38;1.80;;;;;;;29.20;31.28;100854.66;5051464;28;20052;-69
2021/06/29 09:13:01;;;;;;;3.90;1.80;;;;;;;30.27;31.37;100859.97;5051973;28;20064;-69
2021/06/29 09:15:37;;;;;;;5.68;1.90;;;;;;;29.27;30.21;100866.19;5051642;28;20049;-69
2021/06/29 09:18:18;;;;;;;2.83;1.45;;;;;;;28.72;31.92;100861.94;5052053;28;20041;-70
2021/06/29 09:20:51;;;;;;;4.22;2.00;;;;;;;28.70;34.58;100864.00;5051873;28;20049;-71
2021/06/29 09:23:20;;;;;;;5.45;1.70;;;;;;;30.22;30.28;100857.06;5051680;28;20049;-68
2021/06/29 09:25:49;;;;;;;3.55;2.00;;;;;;;29.75;32.50;100854.47;5052020;28;20052;-71
2021/06/29 09:28:19;;;;;;;5.00;1.50;;;;;;;30.75;30.14;100860.38;5051287;28;20049;-70
2021/06/29 09:30:48;;;;;;;5.20;1.48;;;;;;;29.59;29.65;100866.41;5051798;28;20049;-70
2021/06/29 09:33:19;;;;;;;7.82;1.70;;;;;;;29.33;32.21;100871.78;5051698;28;20080;-70
2021/06/29 09:35:50;;;;;;;8.20;1.65;;;;;;;29.92;31.18;100866.41;5051797;28;20063;-71
2021/06/29 09:38:21;;;;;;;6.07;1.60;;;;;;;31.09;29.71;100860.19;5051140;28;20393;-70
2021/06/29 09:40:55;;;;;;;7.70;1.67;;;;;;;32.42;27.94;100865.16;5051388;28;20048;-71
2021/06/29 09:43:23;;;;;;;6.43;1.52;;;;;;;30.31;27.81;100863.84;5051268;28;20049;-71
2021/06/29 09:45:54;;;;;;;6.45;1.80;;;;;;;30.36;28.60;100859.50;5051402;28;20495;-71
2021/06/29 09:48:35;;;;;;;5.18;1.60;;;;;;;31.23;25.47;100865.22;5051077;28;20092;-71
2021/06/29 09:51:06;;;;;;;8.18;2.03;;;;;;;30.37;26.46;100860.34;5051353;28;20045;-70
2021/06/29 09:53:38;;;;;;;4.97;1.40;;;;;;;29.83;27.37;100856.13;5050955;28;20049;-71
2021/06/29 09:56:11;;;;;;;5.93;1.58;;;;;;;30.55;28.66;100859.63;5051293;28;20053;-71
2021/06/29 09:58:39;;;;;;;4.68;1.50;;;;;;;30.27;27.80;100862.66;5050913;28;20148;-71
2021/06/29 10:01:06;;;;;;;6.80;1.35;;;;;;;30.50;25.04;100859.47;5051150;28;20045;-71
2021/06/29 10:03:36;;;;;;;4.70;1.42;;;;;;;30.42;27.25;100857.84;5051671;28;20056;-71
2021/06/29 10:06:10;;;;;;;3.85;1.50;;;;;;;30.26;26.35;100860.97;5055135;28;20056;-71
2021/06/29 10:08:38;;;;;;;5.95;1.52;;;;;;;29.15;29.93;100877.72;5054908;28;20060;-71
2021/06/29 10:11:10;;;;;;;5.78;1.70;;;;;;;28.05;31.05;100860.78;5054702;28;20406;-71
2021/06/29 10:13:39;;;;;;;4.25;1.40;;;;;;;29.01;30.82;100864.28;5054522;28;20067;-71
2021/06/29 10:16:08;;;;;;;5.28;1.40;;;;;;;29.90;30.41;100857.75;5054672;28;20084;-71
2021/06/29 10:18:39;;;;;;;3.88;1.35;;;;;;;30.46;28.38;100869.78;5054548;28;20052;-71
2021/06/29 10:21:17;;;;;;;4.38;1.40;;;;;;;29.76;29.16;100863.34;5054497;28;20041;-71
2021/06/29 10:23:44;;;;;;;4.00;1.85;;;;;;;29.55;29.16;100873.22;5054405;28;20159;-71
2021/06/29 10:26:12;;;;;;;5.18;1.23;;;;;;;29.62;27.66;100871.38;5054392;28;20049;-71
2021/06/29 10:28:40;;;;;;;5.95;1.33;;;;;;;30.79;27.05;100866.13;5054298;28;20053;-71
2021/06/29 10:31:07;;;;;;;4.65;1.23;;;;;;;30.57;26.97;100863.75;5053945;28;20049;-71
2021/06/29 10:33:36;;;;;;;2.92;1.40;;;;;;;30.45;26.54;100862.78;5053956;28;20052;-71
2021/06/29 10:36:04;;;;;;;5.53;1.35;;;;;;;31.39;25.61;100863.06;5054093;28;20041;-71
2021/06/29 10:38:31;;;;;;;6.88;1.65;;;;;;;30.24;27.13;100863.03;5053474;28;20064;-70
2021/06/29 10:40:59;;;;;;;4.57;1.30;;;;;;;29.73;28.07;100857.38;5054184;28;20045;-70
2021/06/29 10:43:26;;;;;;;5.57;1.52;;;;;;;30.37;26.83;100854.97;5054018;28;20053;-70
2021/06/29 10:45:53;;;;;;;4.68;1.45;;;;;;;31.28;25.94;100866.44;5053973;28;20053;-70
2021/06/29 10:48:22;;;;;;;6.18;1.73;;;;;;;30.47;27.56;100860.72;5053714;28;20049;-70
2021/06/29 10:50:52;;;;;;;2.85;1.30;;;;;;;32.03;24.35;100861.06;5054462;28;20049;-70
2021/06/29 10:53:40;;;;;;;5.75;1.38;;;;;;;31.77;26.20;100862.13;5053836;28;20049;-70
2021/06/29 10:56:10;;;;;;;4.88;1.38;;;;;;;31.73;25.30;100856.38;5054197;28;20127;-70
2021/06/29 10:58:43;;;;;;;4.88;1.50;;;;;;;30.78;27.42;100862.63;5053882;28;20053;-70
2021/06/29 11:01:24;;;;;;;2.67;1.17;;;;;;;29.78;27.23;100853.25;5054070;28;20049;-70
2021/06/29 11:03:52;;;;;;;2.75;1.60;;;;;;;30.20;27.86;100851.88;5053955;28;20415;-70
2021/06/29 11:06:43;;;;;;;6.15;1.60;;;;;;;31.55;25.39;100857.16;5053458;28;20045;-70
2021/06/29 11:09:15;;;;;;;3.70;1.20;;;;;;;32.56;26.09;100860.44;5053926;28;20472;-70
2021/06/29 11:12:22;;;;;;;7.97;1.20;;;;;;;31.66;26.60;100856.44;5053939;28;20049;-70
2021/06/29 11:14:50;;;;;;;3.67;1.40;;;;;;;30.90;27.60;100853.88;5053469;28;20107;-70
2021/06/29 11:17:17;;;;;;;3.75;1.52;;;;;;;31.71;27.13;100852.25;5053411;28;20044;-70
2021/06/29 11:20:08;;;;;;;3.78;1.30;;;;;;;31.90;26.34;100846.66;5053308;28;20045;-70
2021/06/29 11:22:51;;;;;;;3.67;1.40;;;;;;;32.41;26.40;100843.84;5053239;28;20053;-70
2021/06/29 11:25:34;;;;;;;5.45;1.50;;;;;;;31.22;28.04;100847.47;5053503;28;20060;-70
2021/06/29 11:28:08;;;;;;;4.65;1.40;;;;;;;31.20;27.18;100840.66;5053653;28;20052;-70
2021/06/29 11:31:12;;;;;;;5.10;1.40;;;;;;;31.69;26.44;100844.41;5053610;28;20052;-70
2021/06/29 11:33:46;;;;;;;5.32;1.30;;;;;;;32.22;24.43;100854.63;5053427;28;20060;-70
2021/06/29 11:36:42;;;;;;;4.40;1.20;;;;;;;32.61;25.08;100844.44;5053387;28;20152;-70
2021/06/29 11:39:33;;;;;;;3.58;1.17;;;;;;;31.92;25.44;100857.22;5053032;28;20049;-70